createdAt,value
2022-10-05T00:04:55.227Z,319.26
2022-10-05T00:10:02.362Z,320.02
2022-10-05T00:15:09.554Z,320.97
2022-10-05T00:20:16.849Z,321.48
2022-10-05T00:25:24.045Z,321.04
2022-10-05T00:30:31.294Z,321.44
2022-10-05T00:35:38.534Z,321.35
2022-10-05T00:40:45.750Z,322.14
2022-10-05T00:45:53.050Z,321.61
2022-10-05T00:51:00.293Z,321.55
2022-10-05T00:56:07.534Z,321.84
2022-10-05T01:01:14.824Z,322.07
2022-10-05T01:06:21.966Z,322.77
2022-10-05T01:11:29.134Z,323.20
2022-10-05T01:16:36.461Z,323.17
2022-10-05T01:21:43.756Z,324.36
2022-10-05T01:26:50.988Z,324.03
2022-10-05T01:31:58.494Z,323.57
2022-10-05T01:37:05.737Z,323.81
2022-10-05T01:42:12.964Z,323.94
2022-10-05T01:47:20.256Z,324.41
2022-10-05T01:52:27.685Z,324.04
2022-10-05T01:57:34.790Z,326.01
2022-10-05T02:02:42.112Z,326.89
2022-10-05T02:07:49.424Z,326.87
2022-10-05T02:12:56.658Z,326.31
2022-10-05T02:18:03.900Z,325.98
2022-10-05T02:23:11.156Z,326.05
2022-10-05T02:28:19.057Z,326.61
2022-10-05T02:33:26.167Z,327.02
2022-10-05T02:38:33.401Z,326.56
2022-10-05T02:43:40.625Z,326.42
2022-10-05T02:48:47.800Z,326.60
2022-10-05T02:53:55.040Z,327.35
2022-10-05T02:59:02.250Z,327.62
2022-10-05T03:04:09.425Z,325.41
2022-10-05T03:09:16.635Z,325.75
2022-10-05T03:14:23.893Z,325.98
2022-10-05T03:19:31.153Z,326.41
2022-10-05T03:24:38.398Z,326.35
2022-10-05T03:29:45.599Z,326.96
2022-10-05T03:34:52.902Z,326.78
2022-10-05T03:40:00.203Z,327.76
2022-10-05T03:45:07.347Z,327.46
2022-10-05T03:50:14.541Z,327.47
2022-10-05T03:55:21.765Z,326.95
2022-10-05T04:00:28.952Z,326.16
2022-10-05T04:05:36.154Z,327.13
2022-10-05T04:10:43.415Z,325.91
2022-10-05T04:15:50.720Z,325.05
2022-10-05T04:20:57.898Z,325.13
2022-10-05T04:26:05.158Z,325.16
2022-10-05T04:31:12.400Z,325.43
2022-10-05T04:36:19.574Z,324.86
2022-10-05T04:41:26.814Z,325.41
2022-10-05T04:46:34.070Z,325.27
2022-10-05T04:51:41.213Z,324.97
2022-10-05T04:56:48.935Z,325.09
2022-10-05T05:01:55.812Z,325.66
2022-10-05T05:07:03.005Z,326.00
2022-10-05T05:12:10.270Z,326.10
2022-10-05T05:17:17.435Z,325.72
2022-10-05T05:22:24.674Z,324.91
2022-10-05T05:27:31.868Z,325.07
2022-10-05T05:32:39.052Z,325.28
2022-10-05T05:37:46.251Z,324.26
2022-10-05T05:42:53.478Z,324.24
2022-10-05T05:48:00.672Z,323.72
2022-10-05T05:53:07.883Z,323.20
2022-10-05T05:58:15.126Z,322.80
2022-10-05T06:03:22.591Z,321.97
2022-10-05T06:08:29.600Z,322.59
2022-10-05T06:13:36.836Z,321.94
2022-10-05T06:18:44.055Z,322.08
2022-10-05T06:23:51.370Z,321.36
2022-10-05T06:28:58.579Z,321.28
2022-10-05T06:34:06.038Z,320.55
2022-10-05T06:39:13.299Z,320.57
2022-10-05T06:44:20.619Z,320.23
2022-10-05T06:49:27.782Z,320.36
2022-10-05T06:54:35.055Z,320.89
2022-10-05T06:59:42.525Z,321.69
2022-10-05T07:04:49.605Z,321.67
2022-10-05T07:09:56.758Z,321.77
2022-10-05T07:15:05.274Z,321.95
2022-10-05T07:20:12.508Z,321.49
2022-10-05T07:25:19.769Z,320.55
2022-10-05T07:30:27.028Z,320.60
2022-10-05T07:35:34.235Z,320.13
2022-10-05T07:40:41.509Z,319.78
2022-10-05T07:45:48.825Z,319.54
2022-10-05T07:50:55.943Z,318.95
2022-10-05T07:56:03.095Z,319.45
2022-10-05T08:01:10.316Z,320.15
2022-10-05T08:06:17.500Z,319.52
2022-10-05T08:11:24.752Z,320.41
2022-10-05T08:16:31.963Z,320.13
2022-10-05T08:21:39.190Z,319.88
2022-10-05T08:26:46.358Z,319.38
2022-10-05T08:31:53.629Z,319.23
2022-10-05T08:37:00.799Z,318.75
2022-10-05T08:42:07.982Z,318.58
2022-10-05T08:47:15.201Z,318.34
2022-10-05T08:52:22.390Z,318.77
2022-10-05T08:57:29.593Z,318.73
2022-10-05T09:02:36.889Z,318.43
2022-10-05T09:07:44.003Z,318.58
2022-10-05T09:12:51.180Z,318.06
2022-10-05T09:17:58.430Z,318.67
2022-10-05T09:23:05.627Z,318.44
2022-10-05T09:28:12.928Z,319.18
2022-10-05T09:33:20.056Z,318.72
2022-10-05T09:38:27.226Z,319.29
2022-10-05T09:43:34.446Z,319.43
2022-10-05T09:48:41.694Z,319.63
2022-10-05T09:53:48.841Z,319.64
2022-10-05T09:58:55.980Z,320.23
2022-10-05T10:04:03.148Z,320.74
2022-10-05T10:09:10.352Z,320.75
2022-10-05T10:14:17.550Z,321.13
2022-10-05T10:19:24.811Z,321.54
2022-10-05T10:24:32.035Z,322.12
2022-10-05T10:29:39.306Z,322.11
2022-10-05T10:34:46.533Z,322.09
2022-10-05T10:39:53.901Z,322.49
2022-10-05T10:45:01.132Z,322.74
2022-10-05T10:50:08.340Z,323.04
2022-10-05T10:55:15.502Z,323.36
2022-10-05T11:00:22.698Z,323.64
2022-10-05T11:05:29.967Z,324.44
2022-10-05T11:10:37.192Z,324.58
2022-10-05T11:15:44.475Z,324.72
2022-10-05T11:20:51.792Z,325.41
2022-10-05T11:25:58.993Z,325.76
2022-10-05T11:31:06.353Z,326.22
2022-10-05T11:36:14.265Z,326.34
2022-10-05T11:41:21.433Z,326.59
2022-10-05T11:46:28.735Z,327.15
2022-10-05T11:51:35.900Z,327.83
2022-10-05T11:56:43.076Z,328.08
2022-10-05T12:01:50.316Z,329.12
2022-10-05T12:06:57.700Z,329.68
2022-10-05T12:12:04.874Z,330.18
2022-10-05T12:17:12.130Z,330.39
2022-10-05T12:22:19.490Z,331.01
2022-10-05T12:27:26.634Z,331.08
2022-10-05T12:32:33.861Z,331.13
2022-10-05T12:37:41.075Z,331.58
2022-10-05T12:42:48.237Z,331.99
2022-10-05T12:47:55.444Z,332.11
2022-10-05T12:53:02.673Z,332.74
2022-10-05T12:58:09.844Z,333.09
2022-10-05T13:03:17.052Z,333.65
2022-10-05T13:08:24.333Z,333.57
2022-10-05T13:13:31.451Z,333.56
2022-10-05T13:18:38.626Z,333.10
2022-10-05T13:23:45.801Z,333.25
2022-10-05T13:28:52.992Z,333.34
2022-10-05T13:34:00.206Z,333.66
2022-10-05T13:39:07.440Z,333.43
2022-10-05T13:44:14.687Z,333.45
2022-10-05T13:49:22.008Z,333.23
2022-10-05T13:54:29.232Z,333.36
2022-10-05T13:59:36.395Z,333.53
2022-10-05T14:04:43.657Z,333.66
2022-10-05T14:09:50.932Z,333.37
2022-10-05T14:14:58.047Z,333.87
2022-10-05T14:20:05.215Z,333.46
2022-10-05T14:25:12.466Z,333.54
2022-10-05T14:30:19.624Z,333.96
2022-10-05T14:35:26.842Z,333.58
2022-10-05T14:40:34.109Z,333.77
2022-10-05T14:45:41.345Z,334.24
2022-10-05T14:50:48.448Z,334.41
2022-10-05T14:55:55.763Z,334.56
2022-10-05T15:01:02.949Z,335.73
2022-10-05T15:06:10.134Z,335.62
2022-10-05T15:11:17.499Z,335.10
2022-10-05T15:16:24.668Z,334.99
2022-10-05T15:21:31.783Z,334.88
2022-10-05T15:26:39.014Z,334.65
2022-10-05T15:31:48.653Z,334.16
2022-10-05T15:36:55.858Z,334.02
2022-10-05T15:42:03.124Z,333.84
2022-10-05T15:47:11.185Z,333.41
2022-10-05T15:52:18.392Z,333.30
2022-10-05T15:57:25.659Z,333.03
2022-10-05T16:02:32.851Z,333.47
2022-10-05T16:07:40.031Z,333.33
2022-10-05T16:12:47.227Z,333.09
2022-10-05T16:17:54.496Z,332.38
2022-10-05T16:23:01.725Z,332.38
2022-10-05T16:28:24.410Z,332.16
2022-10-05T16:33:31.077Z,331.37
2022-10-05T16:38:38.289Z,331.37
2022-10-05T16:43:45.553Z,330.44
2022-10-05T16:48:52.651Z,329.84
2022-10-05T16:53:59.876Z,329.34
2022-10-05T16:59:07.066Z,328.80
2022-10-05T17:04:14.304Z,328.42
2022-10-05T17:09:21.477Z,327.89
2022-10-05T17:14:28.697Z,326.75
2022-10-05T17:19:35.838Z,326.25
2022-10-05T17:24:42.997Z,325.37
2022-10-05T17:29:50.307Z,325.23
2022-10-05T17:34:57.413Z,324.50
2022-10-05T17:40:04.648Z,324.24
2022-10-05T17:45:12.091Z,323.35
2022-10-05T17:50:19.257Z,322.12
2022-10-05T17:55:26.467Z,321.35
2022-10-05T18:00:33.694Z,320.77
2022-10-05T18:05:40.870Z,320.98
2022-10-05T18:10:48.080Z,320.46
2022-10-05T18:15:55.391Z,321.38
2022-10-05T18:21:02.892Z,320.37
2022-10-05T18:26:10.269Z,320.18
2022-10-05T18:31:17.645Z,319.33
2022-10-05T18:36:24.754Z,317.92
2022-10-05T18:41:32.321Z,318.56
2022-10-05T18:46:40.069Z,317.28
2022-10-05T18:51:50.991Z,318.26
2022-10-05T18:56:54.759Z,317.71
2022-10-05T19:02:02.485Z,317.18
2022-10-05T19:07:09.965Z,316.51
2022-10-05T19:12:17.500Z,315.00
2022-10-05T19:17:25.138Z,313.64
2022-10-05T19:22:32.347Z,313.29
2022-10-05T19:27:39.537Z,313.90
2022-10-05T19:32:47.155Z,313.11
2022-10-05T19:37:54.447Z,313.26
2022-10-05T19:43:01.671Z,313.28
2022-10-05T19:48:09.236Z,313.24
2022-10-05T19:53:16.502Z,312.49
2022-10-05T19:58:23.793Z,311.98
2022-10-05T20:03:31.227Z,311.97
2022-10-05T20:08:38.613Z,310.73
2022-10-05T20:13:45.887Z,308.63
2022-10-05T20:18:53.261Z,309.05
2022-10-05T20:24:00.443Z,306.83
2022-10-05T20:29:07.633Z,306.58
2022-10-05T20:34:14.856Z,306.26
2022-10-05T20:39:22.086Z,305.16
2022-10-05T20:44:29.325Z,304.66
2022-10-05T20:49:36.564Z,303.95
2022-10-05T20:54:43.803Z,303.44
2022-10-05T20:59:50.974Z,302.11
2022-10-05T21:04:58.263Z,302.43
2022-10-05T21:10:05.379Z,301.85
2022-10-05T21:15:12.629Z,302.14
2022-10-05T21:20:19.788Z,301.68
2022-10-05T21:25:26.961Z,301.40
2022-10-05T21:30:37.346Z,300.72
2022-10-05T21:35:44.650Z,301.72
2022-10-05T21:40:51.681Z,301.40
2022-10-05T21:45:58.897Z,300.70
2022-10-05T21:51:06.137Z,299.30
2022-10-05T21:56:13.267Z,300.50
2022-10-05T22:01:22.848Z,299.69
2022-10-05T22:06:27.769Z,299.72
2022-10-05T22:11:35.011Z,298.94
2022-10-05T22:16:42.370Z,298.66
2022-10-05T22:21:49.598Z,298.46
2022-10-05T22:26:56.766Z,297.44
2022-10-05T22:32:04.020Z,297.42
2022-10-05T22:37:11.148Z,298.29
2022-10-05T22:42:18.348Z,296.47
2022-10-05T22:47:25.579Z,296.40
2022-10-05T22:52:32.877Z,297.02
2022-10-05T22:57:40.056Z,296.66
2022-10-05T23:02:47.299Z,296.25
2022-10-05T23:07:54.531Z,295.62
2022-10-05T23:13:01.966Z,295.51
2022-10-05T23:18:09.227Z,294.39
2022-10-05T23:23:16.548Z,293.97
2022-10-05T23:28:23.842Z,294.32
2022-10-05T23:33:30.995Z,294.61
2022-10-05T23:38:38.265Z,295.29
2022-10-05T23:43:45.425Z,294.02
2022-10-05T23:48:52.661Z,294.25
2022-10-05T23:53:59.872Z,294.93
2022-10-05T23:59:06.995Z,293.80
